Claremont, Virginia
Current Conditions -  °F | °C
As of 6:35 AM on Tuesday 21 Oct 2014 (Local Time) from KJGG Reporting Station
Clear Clear  
Wind Chill: 57°   Ceiling: Unl
Heat Index: 57°   Visibility: 10mi
Dew Point: 55°   Wind: 5mph
Humidity: 94%   Direction: 190°S
Pressure: 29.9"   Gusts: NA
Location:  37.23°N, 76.96°W
Report Text: KJGG 211035Z AUTO 19004KT 10SM CLR 14/13 A2990 RMK AO1
Loading
Personal Weather Stations






























Interactive Weather Map
Tropical Storm Tracking
New forecast layout! Learn more

10-Day Weather Forecast

Advertisements
Track Severe Weather on mobile